Terminal Aerodrome Forecast
Issued by NWS

Home | Current Version | Previous Version | Text Only | Print | Product List | Glossary On
Versions: 1 2 3 4 5 6 7 8 9 10 11 12 13
000
FTPQ31 PGUM 272332
TAFGUM
TAF

TAF
PKMJ 272331Z 2800/2824 06014KT P6SM VCSH SCT016 SCT050 BKN140
      TEMPO 2806/2810 4SM -SHRA BKN015 BKN050 OVC120=

USA.gov is the U.S. government's official web portal to all federal, state and local government web resources and services.